Time;durP1;ratioP1;P1;durP2;ratioP2;P2;SDS_P1;SDS_P2;PMS_P1;PMS_P2;Temp;Humidity;BMP_temperature;BMP_pressure;BME280_temperature;BME280_humidity;BME280_pressure;Samples;Min_cycle;Max_cycle;Signal;HPM_P1;HPM_P2
2022/11/15 00:01:09;;;;;;;3.00;2.70;;;12.00;99.90;;;12.21;nan;100342.53;5044864;28;20637;-66
2022/11/15 00:03:36;;;;;;;2.63;2.30;;;11.90;99.90;;;12.11;nan;100333.81;5014849;28;20616;-65
2022/11/15 00:06:04;;;;;;;4.07;3.00;;;11.90;99.90;;;12.25;nan;100333.47;5014346;28;20629;-66
2022/11/15 00:08:32;;;;;;;3.20;2.70;;;11.90;99.90;;;12.20;nan;100333.06;5042998;28;20646;-66
2022/11/15 00:11:01;;;;;;;2.40;2.20;;;11.90;99.90;;;12.16;nan;100329.84;5052022;28;21202;-64
2022/11/15 00:13:29;;;;;;;2.37;1.60;;;11.90;99.90;;;12.13;nan;100329.28;5052579;28;20681;-64
2022/11/15 00:15:59;;;;;;;1.80;1.70;;;11.90;99.90;;;11.98;nan;100338.38;5036336;28;20669;-63
2022/11/15 00:18:27;;;;;;;1.93;1.73;;;11.80;99.90;;;11.95;nan;100330.78;5008431;28;20661;-64
2022/11/15 00:20:54;;;;;;;3.47;2.17;;;11.70;99.90;;;11.93;nan;100335.31;5027343;28;20633;-61
2022/11/15 00:23:21;;;;;;;6.43;1.93;;;11.70;99.90;;;11.84;nan;100336.09;5030753;28;20629;-64
2022/11/15 00:25:57;;;;;;;3.90;3.07;;;11.60;99.90;;;11.75;nan;100331.59;5043881;28;20636;-63
2022/11/15 00:28:25;;;;;;;2.83;2.57;;;11.60;99.90;;;11.74;nan;100329.94;5041807;28;20725;-63
2022/11/15 00:30:52;;;;;;;8.67;2.33;;;11.50;99.90;;;11.75;nan;100323.75;5033934;28;20666;-64
2022/11/15 00:33:19;;;;;;;2.30;2.10;;;11.50;99.90;;;11.70;nan;100331.97;5041310;28;20632;-63
2022/11/15 00:35:46;;;;;;;4.07;2.30;;;11.50;99.90;;;11.71;nan;100325.81;5028459;28;20676;-64
2022/11/15 00:38:14;;;;;;;4.10;2.87;;;11.50;99.90;;;11.63;nan;100321.16;5030666;28;20750;-65
2022/11/15 00:40:41;;;;;;;2.43;2.23;;;11.50;99.90;;;11.76;nan;100325.41;5032101;28;20624;-65
2022/11/15 00:43:08;;;;;;;3.20;2.57;;;11.40;99.90;;;11.78;nan;100323.50;5042777;28;20627;-64
2022/11/15 00:45:35;;;;;;;3.90;2.57;;;11.50;99.90;;;11.77;nan;100320.06;5032909;28;20629;-64
2022/11/15 00:48:02;;;;;;;2.80;2.60;;;11.50;99.90;;;11.80;nan;100322.41;5036175;28;20652;-65
2022/11/15 00:50:29;;;;;;;7.27;2.57;;;11.50;99.90;;;11.84;nan;100317.78;5047482;28;20626;-64
2022/11/15 00:52:56;;;;;;;3.40;2.80;;;11.50;99.90;;;11.93;nan;100323.06;5031501;28;20625;-65
2022/11/15 00:55:23;;;;;;;2.93;2.23;;;11.60;99.90;;;11.73;nan;100316.06;5032164;28;20609;-64
2022/11/15 00:57:50;;;;;;;4.47;2.27;;;11.50;99.90;;;11.66;nan;100304.41;5029749;28;20735;-63
2022/11/15 01:00:17;;;;;;;6.03;2.60;;;11.50;99.90;;;11.56;nan;100300.88;5030628;28;20667;-65
2022/11/15 01:02:44;;;;;;;2.50;2.30;;;11.40;99.90;;;11.58;nan;100302.38;5037664;28;21277;-64
2022/11/15 01:05:11;;;;;;;3.37;2.80;;;11.40;99.90;;;11.56;nan;100288.63;5031420;28;20633;-64
2022/11/15 01:07:38;;;;;;;2.40;2.20;;;11.40;99.90;;;11.66;nan;100288.72;5031036;28;20660;-64
2022/11/15 01:10:06;;;;;;;2.03;1.90;;;11.40;99.90;;;11.61;nan;100290.88;5051796;28;20616;-65
2022/11/15 01:12:33;;;;;;;2.03;1.90;;;11.40;99.90;;;11.57;nan;100290.28;5019274;28;20644;-64
2022/11/15 01:15:00;;;;;;;1.80;1.70;;;11.40;99.90;;;11.61;nan;100290.88;5013293;28;20608;-64
2022/11/15 01:17:27;;;;;;;4.27;2.50;;;11.40;99.90;;;11.59;nan;100282.31;5029302;28;20673;-64
2022/11/15 01:19:54;;;;;;;5.93;3.27;;;11.30;99.90;;;11.61;nan;100283.88;5032926;28;21195;-64
2022/11/15 01:22:21;;;;;;;3.57;2.67;;;11.40;99.90;;;11.74;nan;100282.88;5040595;28;20633;-64
2022/11/15 01:24:51;;;;;;;2.97;2.33;;;11.40;99.90;;;11.87;nan;100288.75;5031038;28;21153;-64
2022/11/15 01:27:18;;;;;;;2.83;2.50;;;11.50;99.90;;;11.68;nan;100300.75;5044900;28;20664;-65
2022/11/15 01:29:45;;;;;;;2.70;2.50;;;11.50;99.90;;;11.77;nan;100291.31;5032628;28;21200;-65
2022/11/15 01:32:12;;;;;;;2.87;2.67;;;11.50;99.90;;;11.79;nan;100293.78;5030814;28;20645;-64
2022/11/15 01:34:39;;;;;;;3.67;3.00;;;11.50;99.90;;;11.86;nan;100285.31;5030606;28;20620;-64
2022/11/15 01:37:06;;;;;;;4.40;3.30;;;11.60;99.90;;;11.83;nan;100284.75;5030173;28;21103;-64
2022/11/15 01:39:33;;;;;;;3.83;2.40;;;11.60;99.90;;;11.84;nan;100281.19;5029426;28;20635;-65
2022/11/15 01:42:00;;;;;;;2.70;2.50;;;11.50;99.90;;;11.77;nan;100280.88;5034607;28;20694;-64
2022/11/15 01:44:50;;;;;;;2.60;2.40;;;11.50;99.90;;;11.83;nan;100285.59;5030980;28;20613;-65
2022/11/15 01:47:28;;;;;;;1.87;1.77;;;11.50;99.90;;;11.69;nan;100281.47;5008018;28;21317;-66
2022/11/15 01:50:11;;;;;;;3.90;2.57;;;11.50;99.90;;;11.88;nan;100278.19;5021176;28;20616;-64
2022/11/15 01:52:40;;;;;;;2.60;2.27;;;11.50;99.90;;;11.83;nan;100275.13;5030041;28;21216;-65
2022/11/15 01:55:28;;;;;;;2.80;2.60;;;11.60;99.90;;;11.72;nan;100275.19;5045036;28;20675;-64
2022/11/15 01:58:00;;;;;;;3.90;2.37;;;11.50;99.90;;;11.79;nan;100273.72;5049737;23;21328;-62
2022/11/15 02:00:29;;;;;;;2.73;2.60;;;11.50;99.90;;;11.68;nan;100268.53;5032086;28;20663;-64
2022/11/15 02:02:56;;;;;;;2.60;2.30;;;11.50;99.90;;;11.74;nan;100265.44;5049039;28;20632;-63
2022/11/15 02:05:23;;;;;;;3.00;2.70;;;11.50;99.90;;;11.69;nan;100260.56;5024028;28;20636;-64
2022/11/15 02:07:51;;;;;;;2.50;2.30;;;11.50;99.90;;;11.73;nan;100258.56;5044803;28;20663;-64
2022/11/15 02:10:22;;;;;;;5.43;2.90;;;11.50;99.90;;;11.73;nan;100253.31;5045141;28;21221;-65
2022/11/15 02:12:49;;;;;;;2.57;2.13;;;11.50;99.90;;;11.58;nan;100244.91;5040724;28;20639;-63
2022/11/15 02:15:16;;;;;;;1.93;1.80;;;11.40;99.90;;;11.63;nan;100247.16;5035840;28;21004;-63
2022/11/15 02:17:55;;;;;;;3.80;2.63;;;11.40;99.90;;;11.65;nan;100245.22;5034563;28;20667;-63
2022/11/15 02:20:40;;;;;;;2.10;2.00;;;11.40;99.90;;;11.57;nan;100250.25;5052799;28;20685;-63
2022/11/15 02:23:57;;;;;;;2.60;2.50;;;11.40;99.90;;;11.51;nan;100237.72;5052108;28;20642;-63
2022/11/15 02:27:00;;;;;;;3.37;2.47;;;11.30;99.90;;;11.59;nan;100232.69;5039083;28;20633;-63
2022/11/15 02:29:50;;;;;;;5.33;2.10;;;11.30;99.90;;;11.67;nan;100231.13;4991701;28;20708;-63
2022/11/15 02:32:41;;;;;;;3.87;3.00;;;11.30;99.90;;;11.78;nan;100230.22;5050553;28;22315;-64
2022/11/15 02:35:23;;;;;;;2.63;2.40;;;11.40;99.90;;;11.77;nan;100225.97;5016321;28;20647;-64
2022/11/15 02:37:59;;;;;;;2.77;2.47;;;11.40;99.90;;;11.66;nan;100215.53;5052628;28;20675;-63
2022/11/15 02:40:35;;;;;;;2.73;2.30;;;11.40;99.90;;;11.82;nan;100210.72;5040456;28;20653;-63
2022/11/15 02:47:12;;;;;;;3.03;2.83;;;11.50;99.90;;;11.93;nan;100210.66;5037964;28;21005;-64
2022/11/15 02:49:14;;;;;;;3.03;2.57;;;11.50;99.90;;;11.93;nan;100213.28;5039304;28;21026;-64
2022/11/15 02:51:45;;;;;;;2.97;2.70;;;11.60;99.90;;;12.04;nan;100210.59;5033382;28;20639;-64
2022/11/15 02:54:22;;;;;;;4.07;2.67;;;11.60;99.90;;;11.91;nan;100215.19;5039020;28;20624;-64
2022/11/15 02:56:52;;;;;;;3.37;3.07;;;11.60;99.90;;;12.07;nan;100214.72;5052563;28;20701;-64
2022/11/15 03:00:00;;;;;;;2.70;2.50;;;11.70;99.90;;;11.96;nan;100202.56;5025842;28;20667;-64
2022/11/15 03:03:13;;;;;;;2.40;2.20;;;11.60;99.90;;;11.94;nan;100203.66;5020429;28;20631;-63
2022/11/15 03:06:09;;;;;;;2.67;2.47;;;11.70;99.90;;;11.91;nan;100201.28;5052365;28;20643;-63
2022/11/15 03:09:07;;;;;;;2.90;2.80;;;11.60;99.90;;;11.98;nan;100207.66;5033328;28;20663;-62
2022/11/15 03:11:41;;;;;;;2.80;2.53;;;11.60;99.90;;;11.97;nan;100200.78;5032510;28;20631;-63
2022/11/15 03:14:21;;;;;;;3.67;3.07;;;11.60;99.90;;;12.00;nan;100206.56;5021276;28;20655;-62
2022/11/15 03:17:22;;;;;;;2.37;2.17;;;11.60;99.90;;;12.10;nan;100199.59;5034692;28;20655;-62
2022/11/15 03:19:59;;;;;;;2.17;2.07;;;11.60;99.90;;;12.02;nan;100193.38;5048035;28;21208;-63
2022/11/15 03:22:30;;;;;;;2.90;2.43;;;11.70;99.90;;;12.02;nan;100193.38;5034988;28;20620;-63
2022/11/15 03:25:03;;;;;;;3.33;2.60;;;11.70;99.90;;;12.07;nan;100194.66;5044318;28;20628;-63
2022/11/15 03:27:38;;;;;;;2.90;2.70;;;11.60;99.90;;;11.97;nan;100201.59;5021100;28;20660;-63
2022/11/15 03:30:08;;;;;;;2.60;2.40;;;11.70;99.90;;;11.92;nan;100201.16;5016224;28;20628;-63
2022/11/15 03:32:43;;;;;;;6.23;3.17;;;11.60;99.90;;;11.97;nan;100198.97;5022716;28;21088;-63
2022/11/15 03:35:24;;;;;;;3.00;2.70;;;11.60;99.90;;;11.99;nan;100196.25;5035564;28;20639;-64
2022/11/15 03:38:27;;;;;;;3.30;3.03;;;11.60;99.90;;;11.98;nan;100200.66;5044176;28;21179;-65
2022/11/15 03:41:00;;;;;;;2.43;2.27;;;11.60;99.90;;;12.05;nan;100193.91;5020951;28;20628;-64
2022/11/15 03:43:43;;;;;;;3.17;2.43;;;11.60;99.90;;;12.03;nan;100201.06;5026757;28;20631;-63
2022/11/15 03:46:27;;;;;;;3.10;2.80;;;11.60;99.90;;;12.07;nan;100199.03;5026848;28;20698;-62
2022/11/15 03:49:04;;;;;;;4.33;2.53;;;11.60;99.90;;;12.03;nan;100202.88;5050161;28;20724;-62
2022/11/15 03:51:31;;;;;;;2.83;2.63;;;11.60;99.90;;;12.02;nan;100201.22;5041202;28;20662;-63
2022/11/15 03:53:58;;;;;;;2.33;2.13;;;11.60;99.90;;;12.02;nan;100207.28;5023335;28;20631;-63
2022/11/15 03:56:25;;;;;;;1.60;1.50;;;11.60;99.90;;;11.95;nan;100208.75;5029116;28;20625;-63
2022/11/15 03:58:52;;;;;;;2.63;1.47;;;11.70;99.90;;;12.00;nan;100203.13;5045647;28;20687;-64
2022/11/15 04:01:19;;;;;;;2.27;2.07;;;11.70;99.90;;;11.92;nan;100200.34;5032051;28;21118;-64
2022/11/15 04:03:46;;;;;;;2.30;2.17;;;11.70;99.90;;;11.95;nan;100198.28;5043957;28;20632;-64
2022/11/15 04:06:13;;;;;;;2.40;2.00;;;11.70;99.90;;;11.76;nan;100195.56;5033156;28;20698;-64
2022/11/15 04:08:40;;;;;;;3.07;1.97;;;11.60;99.90;;;11.77;nan;100207.69;5046267;28;21105;-66
2022/11/15 04:11:07;;;;;;;1.67;1.57;;;11.50;99.90;;;11.70;nan;100211.75;5036693;28;20697;-64
2022/11/15 04:13:34;;;;;;;2.57;1.77;;;11.50;99.90;;;11.83;nan;100212.38;5051454;28;20640;-63
2022/11/15 04:16:01;;;;;;;3.73;2.40;;;11.50;99.90;;;11.83;nan;100208.94;5049717;28;20642;-63
2022/11/15 04:18:28;;;;;;;3.73;2.23;;;11.50;99.90;;;11.90;nan;100208.31;5026712;28;21116;-62
2022/11/15 04:26:25;;;;;;;3.07;1.97;;;11.60;99.90;;;12.00;nan;100197.91;5050352;28;20642;-64
2022/11/15 04:31:38;;;;;;;2.30;2.10;;;11.60;99.90;;;11.90;nan;100197.84;5040154;28;20636;-64
2022/11/15 04:34:05;;;;;;;1.93;1.83;;;11.60;99.90;;;11.84;nan;100198.34;5043416;28;20694;-64
2022/11/15 04:39:17;;;;;;;1.87;1.77;;;11.50;99.90;;;11.82;nan;100194.22;5049797;28;20707;-65
2022/11/15 04:41:44;;;;;;;1.77;1.67;;;11.50;99.90;;;11.78;nan;100193.63;5043759;28;20636;-64
2022/11/15 04:44:11;;;;;;;2.53;2.17;;;11.50;99.90;;;11.66;nan;100194.63;5051675;28;20620;-65
2022/11/15 04:46:38;;;;;;;1.73;1.63;;;11.40;99.90;;;11.74;nan;100194.03;5045502;28;20628;-64
2022/11/15 04:49:05;;;;;;;1.93;1.83;;;11.40;99.90;;;11.79;nan;100191.88;5045477;28;20660;-65
2022/11/15 04:51:32;;;;;;;2.60;2.40;;;11.50;99.90;;;11.82;nan;100191.63;5043304;28;21057;-65
2022/11/15 04:53:59;;;;;;;5.30;2.73;;;11.40;99.90;;;11.83;nan;100188.88;5045372;28;21052;-64
2022/11/15 04:56:25;;;;;;;3.67;3.07;;;11.40;99.90;;;11.78;nan;100183.19;5050306;28;20693;-64
2022/11/15 04:58:52;;;;;;;2.67;2.57;;;11.40;99.90;;;11.77;nan;100181.53;5051612;28;21352;-64
2022/11/15 05:01:19;;;;;;;4.50;2.70;;;11.40;99.90;;;11.81;nan;100180.31;5051297;28;20628;-64
2022/11/15 05:06:32;;;;;;;3.40;2.87;;;11.40;99.90;;;11.85;nan;100158.19;5032313;28;20609;-65
2022/11/15 05:08:58;;;;;;;3.57;2.40;;;11.40;99.90;;;11.86;nan;100170.28;5050327;28;20695;-66
2022/11/15 05:11:27;;;;;;;3.90;2.53;;;11.40;99.90;;;11.88;nan;100163.19;5051939;28;20620;-65
2022/11/15 05:13:54;;;;;;;2.60;2.40;;;11.50;99.90;;;11.92;nan;100167.19;5050933;28;21057;-65
2022/11/15 05:16:21;;;;;;;2.73;2.53;;;11.50;99.90;;;11.87;nan;100166.72;5050900;28;20628;-63
2022/11/15 05:18:54;;;;;;;2.70;2.50;;;11.50;99.90;;;11.86;nan;100159.84;5048292;28;20733;-63
2022/11/15 05:21:21;;;;;;;4.77;2.47;;;11.50;99.90;;;11.93;nan;100157.53;5049491;28;20686;-62
2022/11/15 05:23:48;;;;;;;2.40;2.20;;;11.50;99.90;;;11.82;nan;100153.22;5050714;28;21237;-63
2022/11/15 05:26:17;;;;;;;2.13;2.03;;;11.50;99.90;;;11.69;nan;100166.50;5050491;28;20624;-65
2022/11/15 05:28:44;;;;;;;3.80;2.37;;;11.40;99.90;;;11.82;nan;100161.06;5027013;28;21100;-64
2022/11/15 05:31:14;;;;;;;2.70;2.07;;;11.40;99.90;;;11.77;nan;100152.78;5042356;28;20637;-64
2022/11/15 05:33:43;;;;;;;3.50;2.77;;;11.50;99.90;;;11.72;nan;100162.78;5030460;28;20686;-64
2022/11/15 05:36:22;;;;;;;3.57;3.23;;;11.40;99.90;;;11.76;nan;100158.97;5035437;28;20709;-65
2022/11/15 05:38:50;;;;;;;3.13;2.93;;;11.30;99.90;;;11.74;nan;100160.03;5046090;28;20701;-64
2022/11/15 05:41:30;;;;;;;2.37;2.17;;;11.40;99.90;;;11.66;nan;100163.28;5055816;28;20632;-64
2022/11/15 05:43:59;;;;;;;1.77;1.67;;;11.40;99.90;;;11.60;nan;100158.56;5025130;28;20635;-64
2022/11/15 05:46:26;;;;;;;2.43;2.17;;;11.30;99.90;;;11.55;nan;100160.72;5038349;28;20634;-64
2022/11/15 05:48:55;;;;;;;2.83;2.63;;;11.30;99.90;;;11.57;nan;100164.03;5049450;28;20683;-64
2022/11/15 05:51:23;;;;;;;5.83;2.90;;;11.20;99.90;;;11.55;nan;100155.50;5050672;28;21278;-64
2022/11/15 05:53:51;;;;;;;2.67;2.47;;;11.20;99.90;;;11.62;nan;100148.81;5042533;28;20637;-64
2022/11/15 05:56:19;;;;;;;2.70;2.00;;;11.20;99.90;;;11.50;nan;100144.59;5036123;28;21045;-66
2022/11/15 05:58:46;;;;;;;2.13;1.93;;;11.20;99.90;;;11.60;nan;100148.13;5041839;28;20672;-64
2022/11/15 06:01:13;;;;;;;2.17;2.07;;;11.20;99.90;;;11.64;nan;100139.06;5027733;28;20637;-65
2022/11/15 06:03:40;;;;;;;9.67;1.93;;;11.20;99.90;;;11.47;nan;100139.66;5040672;28;20639;-64
2022/11/15 06:06:07;;;;;;;2.10;1.93;;;11.20;99.90;;;11.22;nan;100148.66;5030215;28;21246;-65
2022/11/15 06:08:38;;;;;;;2.13;2.03;;;11.10;99.90;;;11.19;nan;100153.31;5041532;28;20668;-64
2022/11/15 06:11:06;;;;;;;2.00;1.87;;;11.00;99.90;;;11.21;nan;100149.63;5042362;28;21421;-67
2022/11/15 06:13:34;;;;;;;1.97;1.80;;;11.00;99.90;;;11.12;nan;100152.16;5046957;28;20628;-65
2022/11/15 06:16:01;;;;;;;3.47;2.50;;;10.90;99.90;;;11.20;nan;100155.78;5049980;28;20701;-65
2022/11/15 06:18:28;;;;;;;2.80;2.50;;;10.90;99.90;;;11.29;nan;100156.81;5048653;28;20672;-64
2022/11/15 06:20:59;;;;;;;2.97;2.77;;;10.90;99.90;;;11.28;nan;100165.63;5030515;28;20609;-64
2022/11/15 06:23:27;;;;;;;8.93;2.90;;;10.90;99.90;;;11.33;nan;100160.88;5029880;28;21037;-65
2022/11/15 06:25:58;;;;;;;3.13;2.90;;;10.90;99.90;;;11.40;nan;100162.00;5047421;28;21172;-65
2022/11/15 06:28:31;;;;;;;1.80;1.73;;;11.00;99.90;;;11.45;nan;100165.91;5045396;28;20655;-64
2022/11/15 06:31:07;;;;;;;2.23;2.00;;;11.00;99.90;;;11.40;nan;100156.78;5049296;28;20638;-64
2022/11/15 06:33:34;;;;;;;2.60;1.83;;;11.10;99.90;;;11.44;nan;100160.78;5049001;28;20716;-65
2022/11/15 06:36:10;;;;;;;2.60;2.07;;;11.10;99.90;;;11.40;nan;100167.22;5043108;28;20690;-64
2022/11/15 06:38:44;;;;;;;4.37;2.50;;;11.10;99.90;;;11.35;nan;100159.75;5031915;28;20676;-65
2022/11/15 06:41:13;;;;;;;2.70;2.43;;;11.10;99.90;;;11.43;nan;100156.53;5038188;28;20636;-64
2022/11/15 06:43:40;;;;;;;2.00;1.90;;;11.10;99.90;;;11.29;nan;100159.44;5019969;28;20628;-65
2022/11/15 06:46:08;;;;;;;5.70;3.50;;;11.00;99.90;;;11.41;nan;100150.59;5043557;28;20790;-64
2022/11/15 06:48:36;;;;;;;3.40;3.10;;;11.00;99.90;;;11.22;nan;100146.06;5047892;28;20666;-63
2022/11/15 06:51:04;;;;;;;6.47;3.37;;;11.00;99.90;;;11.26;nan;100150.09;5051110;28;20636;-64
2022/11/15 06:53:32;;;;;;;2.27;2.07;;;11.00;99.90;;;11.18;nan;100147.25;5053250;28;20628;-64
2022/11/15 06:56:02;;;;;;;2.87;2.63;;;11.00;99.90;;;11.12;nan;100157.38;5021176;28;20647;-63
2022/11/15 06:58:29;;;;;;;3.97;2.50;;;11.00;99.90;;;11.15;nan;100146.69;5050438;28;20684;-62
2022/11/15 07:01:07;;;;;;;2.80;2.43;;;10.90;99.90;;;11.27;nan;100151.72;5048935;28;21192;-63
2022/11/15 07:03:37;;;;;;;2.33;2.20;;;11.00;99.90;;;11.42;nan;100145.25;5048920;28;21207;-65
2022/11/15 07:06:04;;;;;;;2.60;2.40;;;11.00;99.90;;;11.42;nan;100140.03;5053671;28;20627;-63
2022/11/15 07:08:34;;;;;;;3.33;2.63;;;11.10;99.90;;;11.40;nan;100138.50;5045337;28;20748;-64
2022/11/15 07:11:04;;;;;;;2.43;2.27;;;11.10;99.90;;;11.48;nan;100136.06;5040178;28;21274;-64
2022/11/15 07:13:33;;;;;;;2.10;1.73;;;11.10;99.90;;;11.55;nan;100139.81;5051189;28;20696;-64
2022/11/15 07:16:06;;;;;;;2.17;1.97;;;11.20;99.90;;;11.59;nan;100130.78;5047145;28;20631;-64
2022/11/15 07:18:40;;;;;;;2.50;2.30;;;11.20;99.90;;;11.63;nan;100134.78;5042995;28;20672;-64
2022/11/15 07:21:10;;;;;;;2.00;1.90;;;11.30;99.90;;;11.66;nan;100134.53;5052427;28;20620;-63
2022/11/15 07:23:38;;;;;;;2.60;2.40;;;11.30;99.90;;;11.80;nan;100138.66;5051804;28;20688;-63
2022/11/15 07:26:07;;;;;;;3.03;2.63;;;11.30;99.90;;;11.95;nan;100137.31;5051605;28;20635;-64
2022/11/15 07:28:35;;;;;;;4.53;3.23;;;11.40;99.90;;;11.93;nan;100147.06;5049299;28;20663;-63
2022/11/15 07:31:08;;;;;;;3.53;3.23;;;11.50;99.90;;;11.93;nan;100145.28;5051341;28;20632;-64
2022/11/15 07:33:35;;;;;;;3.93;3.30;;;11.50;99.90;;;12.02;nan;100157.59;5044160;28;20644;-63
2022/11/15 07:36:06;;;;;;;3.40;2.40;;;11.50;99.90;;;12.03;nan;100154.00;5041771;28;20634;-63
2022/11/15 07:38:34;;;;;;;2.57;2.37;;;11.60;99.90;;;11.88;nan;100170.19;5043337;28;20730;-64
2022/11/15 07:41:07;;;;;;;2.17;2.07;;;11.50;99.90;;;11.92;nan;100169.81;5048039;28;20658;-64
2022/11/15 07:43:34;;;;;;;3.00;2.30;;;11.60;99.90;;;11.95;nan;100159.06;5044009;28;21208;-64
2022/11/15 07:46:09;;;;;;;2.90;2.70;;;11.50;99.90;;;11.90;nan;100161.25;5043222;28;20625;-64
2022/11/15 07:48:39;;;;;;;2.27;2.07;;;11.50;99.90;;;11.97;nan;100161.56;5043100;28;20648;-64
2022/11/15 07:51:16;;;;;;;4.60;2.47;;;11.50;99.90;;;11.94;nan;100165.25;5044842;28;21179;-64
2022/11/15 07:53:43;;;;;;;4.67;2.30;;;11.50;99.90;;;12.00;nan;100159.50;5033418;28;20667;-64
2022/11/15 07:56:11;;;;;;;2.43;2.20;;;11.60;99.90;;;11.97;nan;100162.38;5041342;28;20636;-63
2022/11/15 07:58:38;;;;;;;5.10;2.77;;;11.60;99.90;;;11.91;nan;100162.91;5039081;23;20750;-65
2022/11/15 08:01:08;;;;;;;3.13;2.73;;;11.60;99.90;;;11.95;nan;100163.47;5030496;28;21183;-64
2022/11/15 08:03:36;;;;;;;2.77;2.53;;;11.60;99.90;;;12.06;nan;100164.22;5000436;28;21217;-65
2022/11/15 08:06:04;;;;;;;2.57;2.37;;;11.60;99.90;;;11.90;nan;100161.25;5019995;28;20638;-65
2022/11/15 08:08:31;;;;;;;5.60;3.80;;;11.60;99.90;;;12.06;nan;100166.00;4998423;28;20723;-65
2022/11/15 08:10:58;;;;;;;4.93;3.30;;;11.60;99.90;;;12.03;nan;100167.06;5027736;28;20645;-65
2022/11/15 08:13:25;;;;;;;4.10;3.07;;;11.60;99.90;;;12.10;nan;100165.59;5022146;28;20640;-65
2022/11/15 08:16:01;;;;;;;6.20;3.57;;;11.70;99.90;;;12.21;nan;100160.28;5028827;28;20701;-65
2022/11/15 08:18:28;;;;;;;2.93;2.30;;;11.70;99.90;;;11.98;nan;100160.59;5024843;28;21145;-65
2022/11/15 08:20:59;;;;;;;4.30;2.13;;;11.70;99.90;;;11.89;nan;100170.03;5030300;28;20639;-65
2022/11/15 08:23:27;;;;;;;2.83;2.50;;;11.60;99.90;;;11.94;nan;100157.44;5029617;28;20637;-65
2022/11/15 08:26:02;;;;;;;2.33;2.17;;;11.60;99.90;;;11.91;nan;100149.84;5012339;28;20697;-65
2022/11/15 08:28:30;;;;;;;3.10;1.93;;;11.70;99.90;;;11.86;nan;100148.56;5013426;28;20663;-64
2022/11/15 08:30:57;;;;;;;3.80;2.73;;;11.60;99.90;;;11.97;nan;100151.91;5021762;28;20629;-65
2022/11/15 08:33:24;;;;;;;2.30;2.10;;;11.60;99.90;;;12.00;nan;100140.38;5031538;28;20625;-63
2022/11/15 08:35:51;;;;;;;2.83;2.10;;;11.60;99.90;;;11.78;nan;100141.38;5030982;28;21208;-65
2022/11/15 08:38:18;;;;;;;3.63;2.47;;;11.60;99.90;;;11.92;nan;100148.06;5022609;28;20735;-66
2022/11/15 08:40:45;;;;;;;3.40;2.50;;;11.50;99.90;;;11.92;nan;100138.44;5024200;28;21226;-65
2022/11/15 08:43:12;;;;;;;1.93;1.83;;;11.60;99.90;;;12.14;nan;100127.78;5031375;28;21273;-64
2022/11/15 08:45:39;;;;;;;4.53;2.80;;;11.60;99.90;;;12.24;nan;100133.03;5028353;28;20632;-64
2022/11/15 08:48:06;;;;;;;3.83;2.37;;;11.70;99.90;;;12.22;nan;100132.34;5031303;28;20660;-65
2022/11/15 08:50:33;;;;;;;5.90;2.60;;;11.80;99.90;;;12.19;nan;100125.59;5031232;28;20636;-64
2022/11/15 08:53:08;;;;;;;2.70;2.50;;;11.80;99.90;;;12.14;nan;100124.31;5029614;28;20644;-65
2022/11/15 08:55:39;;;;;;;2.93;2.63;;;11.80;99.90;;;12.23;nan;100131.38;5020199;28;20637;-67
2022/11/15 08:58:06;;;;;;;5.50;3.27;;;11.80;99.90;;;12.38;nan;100130.88;5018424;28;20675;-64
2022/11/15 09:00:34;;;;;;;3.00;2.80;;;11.80;99.90;;;12.46;nan;100127.59;5012518;28;20629;-63
2022/11/15 09:03:05;;;;;;;11.40;7.33;;;11.90;99.90;;;12.43;nan;100133.09;5021362;28;20694;-66
2022/11/15 09:05:32;;;;;;;2.47;2.23;;;12.00;99.90;;;12.40;nan;100139.44;5023560;28;20666;-65
2022/11/15 09:07:59;;;;;;;3.73;2.93;;;12.00;99.90;;;12.39;nan;100131.72;5012431;28;20633;-63
2022/11/15 09:10:26;;;;;;;4.33;2.77;;;12.00;99.90;;;12.41;nan;100124.56;5029500;28;20639;-64
2022/11/15 09:12:53;;;;;;;3.40;2.00;;;12.00;99.90;;;12.23;nan;100120.91;5028904;28;20635;-65
2022/11/15 09:15:20;;;;;;;2.67;2.23;;;11.90;99.90;;;12.08;nan;100125.69;5013540;28;20615;-65
2022/11/15 09:17:47;;;;;;;4.07;2.50;;;11.80;99.90;;;12.16;nan;100117.19;5029151;28;20637;-67
2022/11/15 09:20:15;;;;;;;3.80;2.60;;;11.90;99.90;;;12.49;nan;100127.34;5027519;28;21191;-63
2022/11/15 09:22:42;;;;;;;4.60;3.03;;;12.00;99.90;;;12.59;nan;100127.34;5030404;28;20713;-65
2022/11/15 09:25:09;;;;;;;6.10;2.87;;;12.00;99.90;;;12.76;nan;100129.28;5012359;28;20632;-65
2022/11/15 09:27:37;;;;;;;4.43;3.70;;;12.10;99.90;;;12.84;nan;100117.16;5029392;28;20629;-65
2022/11/15 09:30:04;;;;;;;5.03;2.67;;;12.20;99.90;;;12.88;nan;100131.66;5027436;28;20657;-65
2022/11/15 09:32:32;;;;;;;2.77;2.50;;;12.30;99.90;;;12.68;nan;100132.59;5020432;28;21207;-64
2022/11/15 09:35:05;;;;;;;3.50;2.97;;;12.30;99.90;;;12.83;nan;100131.25;5030712;28;20629;-65
2022/11/15 09:37:32;;;;;;;2.57;2.43;;;12.30;99.90;;;12.84;nan;100122.41;5026583;28;21063;-65
2022/11/15 09:39:59;;;;;;;6.00;3.07;;;12.30;99.90;;;12.73;nan;100130.41;5029859;28;20673;-68
2022/11/15 09:42:44;;;;;;;2.40;2.20;;;12.30;99.90;;;12.82;nan;100128.78;5026009;28;20633;-65
2022/11/15 09:45:17;;;;;;;3.43;2.47;;;12.40;99.90;;;12.94;nan;100132.91;5029350;28;20698;-65
2022/11/15 09:48:19;;;;;;;5.00;2.80;;;12.40;99.90;;;12.97;nan;100124.75;5028369;28;20706;-66
2022/11/15 09:50:58;;;;;;;2.80;2.63;;;12.40;99.90;;;13.01;nan;100128.78;4992636;28;21019;-66
2022/11/15 09:53:29;;;;;;;2.70;2.50;;;12.50;99.90;;;13.07;nan;100123.84;5029216;28;20701;-66
2022/11/15 09:56:22;;;;;;;2.70;2.50;;;12.50;99.90;;;13.29;nan;100116.66;5014785;28;21056;-66
2022/11/15 09:59:04;;;;;;;10.30;2.50;;;12.70;99.90;;;13.35;nan;100127.41;5012301;28;20669;-66
2022/11/15 10:01:52;;;;;;;2.60;2.40;;;12.70;99.90;;;13.50;nan;100125.97;5029329;28;20625;-66
2022/11/15 10:04:20;;;;;;;2.70;2.50;;;12.90;99.90;;;13.34;nan;100117.88;5010746;28;21198;-66
2022/11/15 10:07:14;;;;;;;5.50;3.37;;;12.90;99.90;;;13.56;nan;100114.13;5039988;28;20639;-66
2022/11/15 10:10:04;;;;;;;4.43;3.33;;;12.90;99.90;;;13.49;nan;100108.63;5011668;28;20668;-66
2022/11/15 10:12:31;;;;;;;3.23;2.93;;;13.00;99.90;;;13.37;nan;100115.00;5009519;28;20819;-66
2022/11/15 10:15:13;;;;;;;3.37;2.93;;;13.00;99.90;;;13.39;nan;100104.38;5029125;28;20629;-65
2022/11/15 10:18:08;;;;;;;3.93;2.90;;;12.90;99.90;;;13.36;nan;100089.75;5027758;28;20695;-64
2022/11/15 10:21:21;;;;;;;3.67;3.20;;;12.90;99.90;;;13.40;nan;100096.34;5026049;28;20666;-65
2022/11/15 10:23:50;;;;;;;2.60;2.40;;;12.90;99.90;;;13.33;nan;100095.25;5025493;28;20616;-63
2022/11/15 10:26:17;;;;;;;2.70;2.50;;;12.90;99.90;;;13.49;nan;100098.13;5032373;28;20637;-65
2022/11/15 10:28:44;;;;;;;3.80;2.70;;;12.90;99.90;;;13.35;nan;100080.25;5031586;28;20661;-66
2022/11/15 10:31:27;;;;;;;3.43;2.80;;;12.90;99.90;;;13.31;nan;100086.72;5033248;28;20625;-64
2022/11/15 10:34:16;;;;;;;3.03;2.70;;;12.90;99.90;;;13.29;nan;100079.97;5025104;28;20691;-65
2022/11/15 10:37:01;;;;;;;3.20;2.90;;;12.90;99.90;;;13.40;nan;100078.00;5032080;28;21192;-65
2022/11/15 10:39:29;;;;;;;5.17;2.87;;;12.90;99.90;;;13.22;nan;100082.34;5016374;28;21108;-66
2022/11/15 10:41:56;;;;;;;4.67;3.27;;;12.90;99.90;;;13.23;nan;100079.56;5014889;28;20682;-67
2022/11/15 10:44:29;;;;;;;4.20;3.50;;;12.90;99.90;;;13.11;nan;100070.22;5032575;28;20753;-63
2022/11/15 10:46:56;;;;;;;5.50;3.50;;;12.80;99.90;;;13.15;nan;100063.72;5015575;28;20748;-64
2022/11/15 10:49:29;;;;;;;3.27;2.80;;;12.80;99.90;;;13.24;nan;100056.81;5031224;28;21318;-64
2022/11/15 10:52:11;;;;;;;5.50;3.23;;;12.80;99.90;;;13.34;nan;100054.16;5021863;28;20625;-63
2022/11/15 10:54:48;;;;;;;3.17;2.83;;;12.80;99.90;;;13.41;nan;100053.47;5027318;28;20647;-64
2022/11/15 10:57:31;;;;;;;5.03;3.00;;;12.80;99.90;;;13.40;nan;100046.56;5033485;28;20635;-65
2022/11/15 11:00:03;;;;;;;3.50;3.10;;;12.90;99.90;;;13.39;nan;100034.44;5012350;28;20713;-65
2022/11/15 11:02:38;;;;;;;3.33;3.03;;;12.90;99.90;;;13.40;nan;100027.41;5032696;28;20633;-66